Time;durP1;ratioP1;P1;durP2;ratioP2;P2;SDS_P1;SDS_P2;PMS_P1;PMS_P2;Temp;Humidity;BMP_temperature;BMP_pressure;BME280_temperature;BME280_humidity;BME280_pressure;Samples;Min_cycle;Max_cycle;Signal;HPM_P1;HPM_P2
2022/09/25 00:01:59;;;;;;;4.50;0.93;;;;;;;;;;4983996;28;20042;-67
2022/09/25 00:04:26;;;;;;;2.40;0.80;;;;;;;;;;4984049;28;20073;-66
2022/09/25 00:06:53;;;;;;;8.10;0.90;;;;;;;;;;4984265;28;20043;-66
2022/09/25 00:09:22;;;;;;;3.90;0.90;;;;;;;;;;4984357;28;20034;-66
2022/09/25 00:11:49;;;;;;;2.65;0.80;;;;;;;;;;4992717;28;20070;-66
2022/09/25 00:14:16;;;;;;;2.95;0.90;;;;;;;;;;4985137;28;20061;-67
2022/09/25 00:16:42;;;;;;;2.13;0.70;;;;;;;;;;4994794;28;20503;-66
2022/09/25 00:21:55;;;;;;;2.53;0.70;;;;;;;;;;4982858;28;20333;-68
2022/09/25 00:24:22;;;;;;;2.63;0.70;;;;;;;;;;4983450;28;20126;-66
2022/09/25 00:26:49;;;;;;;2.40;0.80;;;;;;;;;;4983102;28;20458;-65
2022/09/25 00:29:17;;;;;;;2.03;0.70;;;;;;;;;;4984028;28;20038;-66
2022/09/25 00:31:43;;;;;;;2.30;0.70;;;;;;;;;;4982050;28;20030;-67
2022/09/25 00:34:11;;;;;;;3.58;1.00;;;;;;;;;;4983996;28;20578;-67
2022/09/25 00:36:38;;;;;;;4.15;1.35;;;;;;;;;;4993943;28;20113;-67
2022/09/25 00:39:04;;;;;;;3.55;0.90;;;;;;;;;;4983243;28;20089;-66
2022/09/25 00:41:31;;;;;;;4.63;0.93;;;;;;;;;;4984194;28;20812;-67
2022/09/25 00:43:59;;;;;;;4.05;1.08;;;;;;;;;;4981027;28;20049;-67
2022/09/25 00:46:34;;;;;;;3.22;0.75;;;;;;;;;;4980397;28;20373;-66
2022/09/25 00:49:04;;;;;;;3.47;1.02;;;;;;;;;;4980121;28;20046;-66
2022/09/25 00:51:40;;;;;;;2.67;0.80;;;;;;;;;;4981123;28;20046;-63
2022/09/25 00:54:08;;;;;;;2.80;0.90;;;;;;;;;;4981838;28;20030;-64
2022/09/25 00:56:39;;;;;;;3.15;0.90;;;;;;;;;;4980268;28;20586;-64
2022/09/25 00:59:08;;;;;;;8.63;1.10;;;;;;;;;;4983722;28;20189;-67
2022/09/25 01:01:35;;;;;;;5.95;0.90;;;;;;;;;;4980390;28;20049;-67
2022/09/25 01:04:01;;;;;;;2.50;0.80;;;;;;;;;;4983049;28;20515;-66
2022/09/25 01:06:28;;;;;;;2.70;0.70;;;;;;;;;;4981588;28;20049;-68
2022/09/25 01:08:56;;;;;;;2.50;0.85;;;;;;;;;;4982670;28;20050;-66
2022/09/25 01:11:23;;;;;;;2.15;0.70;;;;;;;;;;4981318;28;20038;-67
2022/09/25 01:13:51;;;;;;;4.68;0.90;;;;;;;;;;4980221;28;20518;-66
2022/09/25 01:16:30;;;;;;;3.42;0.85;;;;;;;;;;4982027;28;20050;-65
2022/09/25 01:18:59;;;;;;;4.65;0.98;;;;;;;;;;4974151;28;20097;-68
2022/09/25 01:21:42;;;;;;;11.63;1.45;;;;;;;;;;4979774;28;20050;-65
2022/09/25 01:24:27;;;;;;;11.18;0.93;;;;;;;;;;4981323;28;20164;-66
2022/09/25 01:26:57;;;;;;;4.85;0.90;;;;;;;;;;4979002;28;20066;-66
2022/09/25 01:29:29;;;;;;;2.70;0.80;;;;;;;;;;4981832;28;20487;-66
2022/09/25 01:32:02;;;;;;;4.13;1.10;;;;;;;;;;4983960;28;21779;-62
2022/09/25 01:34:51;;;;;;;3.03;1.10;;;;;;;;;;4982818;28;20048;-64
2022/09/25 01:37:18;;;;;;;4.72;1.00;;;;;;;;;;4987384;28;20038;-65
2022/09/25 01:39:55;;;;;;;3.00;1.20;;;;;;;;;;4983831;28;20113;-64
2022/09/25 01:42:25;;;;;;;3.83;1.00;;;;;;;;;;4979999;28;20117;-66
2022/09/25 01:44:58;;;;;;;12.88;1.80;;;;;;;;;;4979009;28;20038;-64
2022/09/25 01:47:29;;;;;;;6.20;1.42;;;;;;;;;;4978498;28;20488;-64
2022/09/25 01:49:58;;;;;;;3.25;1.10;;;;;;;;;;4981359;28;20045;-64
2022/09/25 01:52:28;;;;;;;3.05;0.85;;;;;;;;;;4977128;28;20050;-64
2022/09/25 01:54:56;;;;;;;4.28;1.13;;;;;;;;;;4981136;28;20089;-64
2022/09/25 01:57:28;;;;;;;4.10;1.65;;;;;;;;;;4991171;28;20091;-65
2022/09/25 02:00:01;;;;;;;4.30;1.80;;;;;;;;;;4980094;28;20074;-63
2022/09/25 02:02:38;;;;;;;5.43;2.00;;;;;;;;;;4984800;28;20041;-65
2022/09/25 02:05:10;;;;;;;5.90;2.38;;;;;;;;;;4984410;28;20045;-65
2022/09/25 02:07:40;;;;;;;4.50;1.70;;;;;;;;;;4986377;28;20068;-63
2022/09/25 02:10:12;;;;;;;4.82;1.52;;;;;;;;;;4988212;28;20382;-64
2022/09/25 02:12:43;;;;;;;6.22;1.48;;;;;;;;;;4988102;28;20050;-65
2022/09/25 02:15:11;;;;;;;7.40;1.40;;;;;;;;;;4982938;28;20158;-64
2022/09/25 02:20:33;;;;;;;4.50;1.55;;;;;;;;;;4992092;28;20061;-63
2022/09/25 02:23:15;;;;;;;6.18;1.45;;;;;;;;;;4992354;28;20134;-64
2022/09/25 02:25:48;;;;;;;5.77;1.70;;;;;;;;;;4986211;28;20030;-66
2022/09/25 02:28:15;;;;;;;4.05;1.60;;;;;;;;;;4987523;28;20292;-66
2022/09/25 02:30:43;;;;;;;4.65;1.70;;;;;;;;;;4998817;28;20057;-65
2022/09/25 02:33:10;;;;;;;5.03;1.70;;;;;;;;;;4987030;28;20034;-65
2022/09/25 02:35:38;;;;;;;4.68;2.00;;;;;;;;;;4984338;28;20034;-66
2022/09/25 02:38:05;;;;;;;5.68;1.98;;;;;;;;;;4987929;28;20077;-66
2022/09/25 02:40:37;;;;;;;4.55;1.90;;;;;;;;;;4981748;28;20108;-67
2022/09/25 02:43:21;;;;;;;5.60;1.95;;;;;;;;;;4984090;28;20038;-66
2022/09/25 02:45:51;;;;;;;5.68;1.90;;;;;;;;;;4972097;28;20043;-67
2022/09/25 02:48:21;;;;;;;6.35;2.00;;;;;;;;;;4963554;28;20048;-67
2022/09/25 02:50:54;;;;;;;5.78;2.22;;;;;;;;;;4978776;28;20046;-66
2022/09/25 02:53:21;;;;;;;7.78;3.13;;;;;;;;;;4967117;28;20061;-66
2022/09/25 02:55:50;;;;;;;7.57;3.63;;;;;;;;;;4986800;28;21779;-69
2022/09/25 02:58:21;;;;;;;7.07;3.60;;;;;;;;;;4963135;28;20046;-67
2022/09/25 03:00:50;;;;;;;9.50;3.55;;;;;;;;;;4962744;28;20041;-67
2022/09/25 03:03:17;;;;;;;8.73;3.60;;;;;;;;;;4963270;28;20121;-67
2022/09/25 03:05:44;;;;;;;7.25;3.30;;;;;;;;;;4964063;28;20047;-66
2022/09/25 03:10:57;;;;;;;7.00;3.17;;;;;;;;;;4985105;28;20509;-66
2022/09/25 03:13:30;;;;;;;8.07;2.60;;;;;;;;;;4982590;28;20050;-67
2022/09/25 03:15:58;;;;;;;5.38;2.33;;;;;;;;;;4980615;28;20053;-66
2022/09/25 03:18:25;;;;;;;8.32;2.33;;;;;;;;;;4983761;28;20042;-64
2022/09/25 03:20:51;;;;;;;7.97;2.35;;;;;;;;;;4985993;28;20145;-63
2022/09/25 03:23:18;;;;;;;7.38;2.45;;;;;;;;;;4983763;28;20042;-63
2022/09/25 03:25:46;;;;;;;7.10;2.42;;;;;;;;;;4980539;28;20590;-64
2022/09/25 03:28:13;;;;;;;7.53;3.72;;;;;;;;;;4984877;28;20045;-64
2022/09/25 03:30:40;;;;;;;6.00;3.08;;;;;;;;;;4986131;28;22154;-65
2022/09/25 03:33:09;;;;;;;7.45;2.70;;;;;;;;;;4983560;28;20042;-65
2022/09/25 03:35:36;;;;;;;6.85;2.00;;;;;;;;;;4982359;28;20073;-66
2022/09/25 03:38:03;;;;;;;4.28;1.92;;;;;;;;;;4984130;28;20042;-64
2022/09/25 03:40:30;;;;;;;6.78;2.22;;;;;;;;;;4983631;28;20061;-65
2022/09/25 03:42:56;;;;;;;8.98;2.28;;;;;;;;;;4982847;28;20157;-65
2022/09/25 03:45:23;;;;;;;5.55;2.25;;;;;;;;;;4981185;28;20046;-65
2022/09/25 03:47:50;;;;;;;4.20;1.85;;;;;;;;;;4981528;28;20042;-64
2022/09/25 03:50:16;;;;;;;5.40;1.67;;;;;;;;;;4984838;28;20065;-65
2022/09/25 03:52:43;;;;;;;3.97;1.58;;;;;;;;;;4984963;28;20102;-65
2022/09/25 03:55:10;;;;;;;3.20;1.48;;;;;;;;;;4984389;28;20070;-64
2022/09/25 03:57:38;;;;;;;6.05;2.55;;;;;;;;;;4984471;28;20038;-65
2022/09/25 04:00:05;;;;;;;4.82;2.22;;;;;;;;;;4986719;28;20094;-65
2022/09/25 04:02:32;;;;;;;4.82;2.50;;;;;;;;;;4973722;28;20362;-67
2022/09/25 04:04:59;;;;;;;4.35;2.00;;;;;;;;;;4982589;28;20120;-65
2022/09/25 04:07:27;;;;;;;7.15;2.40;;;;;;;;;;4983905;28;20042;-65
2022/09/25 04:09:53;;;;;;;5.65;2.38;;;;;;;;;;4972422;28;20058;-67
2022/09/25 04:12:20;;;;;;;5.32;1.95;;;;;;;;;;4988162;28;20050;-67
2022/09/25 04:15:08;;;;;;;4.43;1.90;;;;;;;;;;4988314;28;20422;-67
2022/09/25 04:17:34;;;;;;;8.43;1.95;;;;;;;;;;4988697;28;20042;-65
2022/09/25 04:20:01;;;;;;;4.90;1.50;;;;;;;;;;4991432;28;20053;-65
2022/09/25 04:22:28;;;;;;;6.28;2.10;;;;;;;;;;4991681;28;20050;-66
2022/09/25 04:24:56;;;;;;;4.15;1.70;;;;;;;;;;4993562;28;20120;-65
2022/09/25 04:27:23;;;;;;;6.70;1.85;;;;;;;;;;4990344;28;20491;-66
2022/09/25 04:29:50;;;;;;;6.28;1.80;;;;;;;;;;4991986;28;20050;-65
2022/09/25 04:35:01;;;;;;;4.40;1.83;;;;;;;;;;4978156;28;20064;-66
2022/09/25 04:37:28;;;;;;;6.60;1.70;;;;;;;;;;4991851;28;20754;-64
2022/09/25 04:39:55;;;;;;;4.88;1.75;;;;;;;;;;4994148;28;20037;-67
2022/09/25 04:42:25;;;;;;;4.18;1.73;;;;;;;;;;4992925;28;20041;-65
2022/09/25 04:44:52;;;;;;;4.63;1.60;;;;;;;;;;4993947;28;20041;-66
2022/09/25 04:47:20;;;;;;;4.80;1.58;;;;;;;;;;4982537;28;20050;-66
2022/09/25 04:49:47;;;;;;;4.20;1.55;;;;;;;;;;4982804;28;20052;-65
2022/09/25 04:52:14;;;;;;;4.95;1.23;;;;;;;;;;4979436;28;20081;-66
2022/09/25 04:54:41;;;;;;;4.25;1.40;;;;;;;;;;4980808;28;20046;-67
2022/09/25 04:57:10;;;;;;;4.50;1.50;;;;;;;;;;4981015;28;21106;-66
2022/09/25 04:59:37;;;;;;;5.13;1.40;;;;;;;;;;4979841;28;20058;-67
2022/09/25 05:02:03;;;;;;;3.63;1.33;;;;;;;;;;4982107;28;20042;-65
2022/09/25 05:04:30;;;;;;;3.83;1.23;;;;;;;;;;4978726;28;20042;-67
2022/09/25 05:06:57;;;;;;;4.38;1.50;;;;;;;;;;4979984;28;20042;-62
2022/09/25 05:09:24;;;;;;;4.45;1.42;;;;;;;;;;4980511;28;20044;-63
2022/09/25 05:11:50;;;;;;;3.92;1.35;;;;;;;;;;4981439;28;20538;-65
2022/09/25 05:14:17;;;;;;;4.22;1.50;;;;;;;;;;4979628;28;20057;-66
2022/09/25 05:16:46;;;;;;;2.97;1.25;;;;;;;;;;4954171;28;20049;-66
2022/09/25 05:19:13;;;;;;;4.18;1.30;;;;;;;;;;4958243;28;20050;-66
2022/09/25 05:21:40;;;;;;;5.53;1.33;;;;;;;;;;4957091;28;20519;-65
2022/09/25 05:24:09;;;;;;;6.85;1.42;;;;;;;;;;4959068;28;20199;-65
2022/09/25 05:26:37;;;;;;;5.25;1.20;;;;;;;;;;4957543;28;20051;-63
2022/09/25 05:29:04;;;;;;;5.82;1.42;;;;;;;;;;4958719;28;20467;-65
2022/09/25 05:31:31;;;;;;;5.22;1.33;;;;;;;;;;4957360;28;20824;-65
2022/09/25 05:33:58;;;;;;;3.15;1.20;;;;;;;;;;4957858;28;20038;-64
2022/09/25 05:36:24;;;;;;;7.55;1.40;;;;;;;;;;4957494;28;20102;-65
2022/09/25 05:38:51;;;;;;;3.85;1.30;;;;;;;;;;4956752;28;20547;-65
2022/09/25 05:41:18;;;;;;;4.00;1.50;;;;;;;;;;4958242;28;20046;-65
2022/09/25 05:43:46;;;;;;;4.53;1.20;;;;;;;;;;4957084;28;20423;-65
2022/09/25 05:46:14;;;;;;;5.07;1.40;;;;;;;;;;4958513;28;20460;-65
2022/09/25 05:48:40;;;;;;;9.32;1.27;;;;;;;;;;4956485;28;20054;-66
2022/09/25 05:51:07;;;;;;;5.30;1.10;;;;;;;;;;4989071;28;20039;-66
2022/09/25 05:53:35;;;;;;;4.07;1.40;;;;;;;;;;4976704;28;20137;-65
2022/09/25 05:56:02;;;;;;;4.68;1.25;;;;;;;;;;4957848;28;20065;-69
2022/09/25 05:58:30;;;;;;;5.35;1.30;;;;;;;;;;4970433;28;20198;-66
2022/09/25 06:01:02;;;;;;;5.43;1.40;;;;;;;;;;4956345;28;20130;-66
2022/09/25 06:03:28;;;;;;;3.13;1.05;;;;;;;;;;4956709;28;20090;-64
2022/09/25 06:05:56;;;;;;;3.50;1.30;;;;;;;;;;4971370;28;20039;-65
2022/09/25 06:08:22;;;;;;;2.95;0.90;;;;;;;;;;4955815;28;20078;-65
2022/09/25 06:10:53;;;;;;;2.72;0.98;;;;;;;;;;4957511;28;20411;-66
2022/09/25 06:13:20;;;;;;;7.00;1.10;;;;;;;;;;4957396;28;20050;-66
2022/09/25 06:15:49;;;;;;;3.40;1.20;;;;;;;;;;4960069;28;20038;-66
2022/09/25 06:18:16;;;;;;;3.38;1.30;;;;;;;;;;4971915;28;20385;-68
2022/09/25 06:20:42;;;;;;;3.70;1.15;;;;;;;;;;4960050;28;21827;-65
2022/09/25 06:23:09;;;;;;;4.90;1.08;;;;;;;;;;4959761;28;20645;-65
2022/09/25 06:25:36;;;;;;;3.17;1.08;;;;;;;;;;4971027;28;20039;-65
2022/09/25 06:28:03;;;;;;;3.13;1.30;;;;;;;;;;4960713;28;20039;-65
2022/09/25 06:30:33;;;;;;;3.15;1.00;;;;;;;;;;4971129;28;20109;-65
2022/09/25 06:33:12;;;;;;;3.65;1.20;;;;;;;;;;4960419;28;20463;-64
2022/09/25 06:35:43;;;;;;;3.97;1.40;;;;;;;;;;4959343;28;20050;-65
2022/09/25 06:38:10;;;;;;;3.95;1.13;;;;;;;;;;4959532;28;20090;-66
2022/09/25 06:40:39;;;;;;;4.88;1.40;;;;;;;;;;4961356;28;20115;-65
2022/09/25 06:43:07;;;;;;;6.03;1.40;;;;;;;;;;4960260;28;20118;-65
2022/09/25 06:45:34;;;;;;;4.53;1.30;;;;;;;;;;4959174;28;20376;-66
2022/09/25 06:48:01;;;;;;;5.07;1.48;;;;;;;;;;4962556;28;20035;-66
2022/09/25 06:50:30;;;;;;;3.50;1.30;;;;;;;;;;4963478;28;20035;-66
2022/09/25 06:52:58;;;;;;;4.47;1.33;;;;;;;;;;4963110;28;20046;-66
2022/09/25 06:55:25;;;;;;;3.63;1.20;;;;;;;;;;4962514;28;20567;-65
2022/09/25 06:57:51;;;;;;;4.13;1.30;;;;;;;;;;4961710;28;20058;-65
2022/09/25 07:00:18;;;;;;;3.35;1.15;;;;;;;;;;4975418;28;20089;-65
2022/09/25 07:05:30;;;;;;;3.08;1.08;;;;;;;;;;4960685;28;20085;-65
2022/09/25 07:07:57;;;;;;;4.63;1.20;;;;;;;;;;4990883;28;20126;-64
2022/09/25 07:10:23;;;;;;;2.60;0.90;;;;;;;;;;4960501;28;21807;-65
2022/09/25 07:12:50;;;;;;;3.72;1.10;;;;;;;;;;4991476;28;20101;-65
2022/09/25 07:15:17;;;;;;;2.80;1.08;;;;;;;;;;4961011;28;20512;-65
2022/09/25 07:17:44;;;;;;;5.50;1.25;;;;;;;;;;4959048;28;20035;-66
2022/09/25 07:20:14;;;;;;;4.15;1.30;;;;;;;;;;4959702;28;20065;-64
2022/09/25 07:22:41;;;;;;;3.10;1.10;;;;;;;;;;4958848;28;20051;-63
2022/09/25 07:25:08;;;;;;;3.80;1.20;;;;;;;;;;4959471;28;20078;-64
2022/09/25 07:27:35;;;;;;;14.57;1.58;;;;;;;;;;4953456;28;20039;-66
2022/09/25 07:30:02;;;;;;;3.50;0.98;;;;;;;;;;4960447;28;20045;-64
2022/09/25 07:32:30;;;;;;;5.85;1.20;;;;;;;;;;4972805;28;20853;-64
2022/09/25 07:34:57;;;;;;;3.75;1.33;;;;;;;;;;4959109;28;20093;-64
2022/09/25 07:37:24;;;;;;;2.80;1.00;;;;;;;;;;4956882;28;20050;-64
2022/09/25 07:39:51;;;;;;;7.90;1.10;;;;;;;;;;4959612;28;20161;-64
2022/09/25 07:42:18;;;;;;;4.40;1.13;;;;;;;;;;4959339;28;20035;-66
2022/09/25 07:44:44;;;;;;;2.97;1.15;;;;;;;;;;4981516;28;20495;-65
2022/09/25 07:47:14;;;;;;;2.88;1.10;;;;;;;;;;4982329;28;20039;-65
2022/09/25 07:49:41;;;;;;;3.00;1.10;;;;;;;;;;4982713;28;20083;-64
2022/09/25 07:52:07;;;;;;;4.45;1.38;;;;;;;;;;4982916;28;20567;-64
2022/09/25 07:54:35;;;;;;;3.00;1.13;;;;;;;;;;4979441;28;20057;-65
2022/09/25 07:57:01;;;;;;;3.22;1.20;;;;;;;;;;4980508;28;20042;-64
2022/09/25 07:59:28;;;;;;;2.88;1.10;;;;;;;;;;4982668;28;20592;-65
2022/09/25 08:01:56;;;;;;;3.47;1.17;;;;;;;;;;4983744;28;20053;-64
2022/09/25 08:04:23;;;;;;;3.08;1.00;;;;;;;;;;4984687;28;20042;-65
2022/09/25 08:06:50;;;;;;;3.33;1.15;;;;;;;;;;4984724;28;21182;-65
2022/09/25 08:09:16;;;;;;;4.20;1.20;;;;;;;;;;4998006;28;20058;-65
2022/09/25 08:11:43;;;;;;;3.55;1.30;;;;;;;;;;4975876;28;20154;-65
2022/09/25 08:14:13;;;;;;;3.05;1.20;;;;;;;;;;4982655;28;20495;-66
2022/09/25 08:16:39;;;;;;;2.95;1.17;;;;;;;;;;4981762;28;20157;-65
2022/09/25 08:19:06;;;;;;;6.00;1.20;;;;;;;;;;4983415;28;20050;-64
2022/09/25 08:21:34;;;;;;;3.50;1.33;;;;;;;;;;4982906;28;20043;-65
2022/09/25 08:24:00;;;;;;;5.80;1.50;;;;;;;;;;4981501;28;20057;-66
2022/09/25 08:26:28;;;;;;;3.63;1.17;;;;;;;;;;4983014;28;20042;-65
2022/09/25 08:28:55;;;;;;;3.88;1.63;;;;;;;;;;4985103;28;20038;-66
2022/09/25 08:31:22;;;;;;;4.03;1.20;;;;;;;;;;4984291;28;20065;-66
2022/09/25 08:33:50;;;;;;;2.83;1.15;;;;;;;;;;4984146;28;20041;-66
2022/09/25 08:36:17;;;;;;;4.00;1.52;;;;;;;;;;4998949;28;20157;-64
2022/09/25 08:38:44;;;;;;;11.60;1.60;;;;;;;;;;4983793;28;20531;-66
2022/09/25 08:41:26;;;;;;;3.85;1.35;;;;;;;;;;4982145;28;20046;-65
2022/09/25 08:44:11;;;;;;;4.35;1.33;;;;;;;;;;4967625;28;20083;-66
2022/09/25 08:49:38;;;;;;;3.63;1.50;;;;;;;;;;4958600;28;20085;-65
2022/09/25 08:52:11;;;;;;;4.20;1.30;;;;;;;;;;4991210;28;20392;-65
2022/09/25 08:54:59;;;;;;;7.47;1.52;;;;;;;;;;4995339;28;20467;-66
2022/09/25 08:57:42;;;;;;;3.97;1.30;;;;;;;;;;4994610;28;20136;-65
2022/09/25 09:00:23;;;;;;;5.53;1.70;;;;;;;;;;4996658;28;20309;-66
2022/09/25 09:02:50;;;;;;;5.53;1.55;;;;;;;;;;4980115;28;20629;-66
2022/09/25 09:05:36;;;;;;;6.88;1.70;;;;;;;;;;4977026;28;20049;-66
2022/09/25 09:08:09;;;;;;;5.72;1.50;;;;;;;;;;4996123;28;20049;-65
2022/09/25 09:10:38;;;;;;;6.25;1.30;;;;;;;;;;4995476;28;20042;-65
2022/09/25 09:13:23;;;;;;;4.72;1.40;;;;;;;;;;4995235;28;20056;-64
2022/09/25 09:15:54;;;;;;;4.13;1.50;;;;;;;;;;4994661;28;20045;-63
2022/09/25 09:18:25;;;;;;;4.88;1.40;;;;;;;;;;4996791;28;20052;-64
2022/09/25 09:20:56;;;;;;;3.67;1.60;;;;;;;;;;4997465;28;20052;-64
2022/09/25 09:23:24;;;;;;;3.70;1.45;;;;;;;;;;4997072;28;20089;-64
2022/09/25 09:25:56;;;;;;;3.65;1.52;;;;;;;;;;4998937;28;20192;-63
2022/09/25 09:28:40;;;;;;;6.32;1.35;;;;;;;;;;4998004;28;20161;-65
2022/09/25 09:31:25;;;;;;;3.60;1.33;;;;;;;;;;4997642;28;20073;-64
2022/09/25 09:33:57;;;;;;;3.65;1.30;;;;;;;;;;4984543;28;20077;-64
2022/09/25 09:36:38;;;;;;;4.13;1.50;;;;;;;;;;4986112;28;20057;-65
2022/09/25 09:39:07;;;;;;;4.05;1.25;;;;;;;;;;4985804;28;20050;-64
2022/09/25 09:41:41;;;;;;;5.60;1.48;;;;;;;;;;4985384;28;20037;-64
2022/09/25 09:44:26;;;;;;;3.47;1.20;;;;;;;;;;4984907;28;20047;-64
2022/09/25 09:47:21;;;;;;;3.25;1.27;;;;;;;;;;4966536;28;20478;-64
2022/09/25 09:49:57;;;;;;;2.83;1.10;;;;;;;;;;4984958;28;20050;-64
2022/09/25 09:52:29;;;;;;;3.90;1.30;;;;;;;;;;4985923;28;20069;-64
2022/09/25 09:54:59;;;;;;;3.38;1.20;;;;;;;;;;4981101;28;20093;-65
2022/09/25 09:57:55;;;;;;;4.50;1.33;;;;;;;;;;4984430;28;20037;-64
2022/09/25 10:00:23;;;;;;;4.43;1.60;;;;;;;;;;4974283;28;20153;-64
2022/09/25 10:02:49;;;;;;;3.05;1.33;;;;;;;;;;4985005;28;20061;-65
2022/09/25 10:05:31;;;;;;;3.55;1.40;;;;;;;;;;4984606;28;20049;-65
2022/09/25 10:07:58;;;;;;;8.15;1.48;;;;;;;;;;4967935;28;20074;-63
2022/09/25 10:10:34;;;;;;;3.25;1.20;;;;;;;;;;4959420;28;20035;-65
2022/09/25 10:13:05;;;;;;;3.75;1.50;;;;;;;;;;4960201;28;20058;-65
2022/09/25 10:15:44;;;;;;;2.83;1.20;;;;;;;;;;4968663;28;20125;-66
2022/09/25 10:18:12;;;;;;;4.15;1.23;;;;;;;;;;4966609;28;20047;-66
2022/09/25 10:20:46;;;;;;;3.65;1.30;;;;;;;;;;4991275;28;20039;-65
2022/09/25 10:23:21;;;;;;;2.95;1.13;;;;;;;;;;4962821;28;20477;-67
2022/09/25 10:25:48;;;;;;;3.25;1.30;;;;;;;;;;4997091;28;20053;-65
2022/09/25 10:28:33;;;;;;;3.22;1.17;;;;;;;;;;4985373;28;20121;-65
2022/09/25 10:31:01;;;;;;;3.88;1.58;;;;;;;;;;4980970;28;20054;-66
2022/09/25 10:33:29;;;;;;;3.92;1.45;;;;;;;;;;4985317;28;20068;-64
2022/09/25 10:35:56;;;;;;;3.55;1.30;;;;;;;;;;4986174;28;20038;-65
2022/09/25 10:38:40;;;;;;;3.50;1.48;;;;;;;;;;4985450;28;20050;-65
2022/09/25 10:41:13;;;;;;;3.08;1.23;;;;;;;;;;4987135;28;20049;-65
2022/09/25 10:43:52;;;;;;;4.55;1.50;;;;;;;;;;4985798;28;20046;-67
2022/09/25 10:52:12;;;;;;;4.15;1.60;;;;;;;;;;4986062;28;20093;-64
2022/09/25 10:54:39;;;;;;;3.70;1.45;;;;;;;;;;4986699;28;26743;-64
2022/09/25 10:57:17;;;;;;;2.92;1.17;;;;;;;;;;4997613;28;20035;-65
2022/09/25 10:59:51;;;;;;;4.10;1.25;;;;;;;;;;4983451;28;20046;-66
2022/09/25 11:02:28;;;;;;;3.65;1.40;;;;;;;;;;4985025;28;20038;-66
2022/09/25 11:04:56;;;;;;;3.97;1.27;;;;;;;;;;4978227;28;20053;-65
2022/09/25 11:07:26;;;;;;;4.47;1.45;;;;;;;;;;4985463;28;20147;-64
2022/09/25 11:09:53;;;;;;;4.82;1.42;;;;;;;;;;4985865;28;20510;-66
2022/09/25 11:12:24;;;;;;;4.43;1.58;;;;;;;;;;4977274;28;20073;-66
2022/09/25 11:14:56;;;;;;;3.00;1.30;;;;;;;;;;4982774;28;20084;-65
2022/09/25 11:17:49;;;;;;;3.28;1.30;;;;;;;;;;4983038;28;20073;-63
2022/09/25 11:20:49;;;;;;;3.25;1.40;;;;;;;;;;4979341;28;20101;-65
2022/09/25 11:23:35;;;;;;;5.97;1.70;;;;;;;;;;4985155;28;20043;-64
2022/09/25 11:26:19;;;;;;;3.95;1.60;;;;;;;;;;4980418;28;20039;-64
2022/09/25 11:28:48;;;;;;;3.97;1.75;;;;;;;;;;4985625;28;20050;-64
2022/09/25 11:31:26;;;;;;;6.55;1.50;;;;;;;;;;4987681;28;20038;-64
2022/09/25 11:33:56;;;;;;;3.53;1.48;;;;;;;;;;4982784;28;20157;-65
2022/09/25 11:36:28;;;;;;;4.72;1.90;;;;;;;;;;4981412;28;20121;-65
2022/09/25 11:41:45;;;;;;;4.53;1.50;;;;;;;;;;4985696;28;20060;-65
2022/09/25 11:44:31;;;;;;;4.82;1.48;;;;;;;;;;4984659;28;20058;-65
2022/09/25 11:47:24;;;;;;;4.13;1.55;;;;;;;;;;4984130;28;20098;-63
2022/09/25 11:49:53;;;;;;;3.37;1.47;;;;;;;;;;4981914;28;20476;-66
2022/09/25 11:52:25;;;;;;;7.13;1.85;;;;;;;;;;4984289;28;20594;-66
2022/09/25 11:55:01;;;;;;;3.85;1.33;;;;;;;;;;4996707;28;20590;-65
2022/09/25 11:57:35;;;;;;;5.20;1.58;;;;;;;;;;4981320;28;20125;-66
2022/09/25 12:00:10;;;;;;;5.22;1.40;;;;;;;;;;4995685;28;20076;-64
2022/09/25 12:02:49;;;;;;;5.68;1.52;;;;;;;;;;4983029;28;20626;-66
2022/09/25 12:05:18;;;;;;;4.60;1.60;;;;;;;;;;4983105;28;20045;-65
2022/09/25 12:08:04;;;;;;;3.05;1.38;;;;;;;;;;4980103;28;20038;-64
2022/09/25 12:10:44;;;;;;;3.63;1.48;;;;;;;;;;4989082;28;20044;-64
2022/09/25 12:13:37;;;;;;;4.18;1.75;;;;;;;;;;4983148;28;20105;-63
2022/09/25 12:16:13;;;;;;;3.90;1.27;;;;;;;;;;4994792;28;20465;-64
2022/09/25 12:18:48;;;;;;;2.78;1.10;;;;;;;;;;4982252;28;20054;-64
2022/09/25 12:21:15;;;;;;;3.90;1.42;;;;;;;;;;4995175;28;20697;-63
2022/09/25 12:23:56;;;;;;;3.58;1.27;;;;;;;;;;4982695;28;20042;-64
2022/09/25 12:26:34;;;;;;;4.13;1.33;;;;;;;;;;4993101;28;20474;-65
2022/09/25 12:29:02;;;;;;;3.83;1.58;;;;;;;;;;4984035;28;20564;-65
2022/09/25 12:31:35;;;;;;;3.53;1.45;;;;;;;;;;4980862;28;20047;-65
2022/09/25 12:34:10;;;;;;;3.67;1.40;;;;;;;;;;4983621;28;20463;-64
2022/09/25 12:36:41;;;;;;;3.30;1.50;;;;;;;;;;4982324;28;20046;-64
2022/09/25 12:39:39;;;;;;;3.08;1.23;;;;;;;;;;4984078;28;20462;-63
2022/09/25 12:42:16;;;;;;;3.65;1.30;;;;;;;;;;4953098;28;20082;-64
2022/09/25 12:44:47;;;;;;;2.97;1.38;;;;;;;;;;4955037;28;20093;-66
2022/09/25 12:47:32;;;;;;;3.20;1.20;;;;;;;;;;4991494;28;20054;-66
2022/09/25 12:50:01;;;;;;;5.03;1.50;;;;;;;;;;4995034;28;20053;-66
2022/09/25 12:52:36;;;;;;;3.90;1.60;;;;;;;;;;4984531;28;20396;-64
2022/09/25 12:55:06;;;;;;;3.47;1.40;;;;;;;;;;4982897;28;20050;-59
2022/09/25 12:57:39;;;;;;;3.30;1.50;;;;;;;;;;4995788;28;20558;-64
2022/09/25 13:00:23;;;;;;;5.88;1.60;;;;;;;;;;4982679;28;20082;-63
2022/09/25 13:03:00;;;;;;;4.40;1.48;;;;;;;;;;4975073;28;20443;-61
2022/09/25 13:05:55;;;;;;;4.90;1.65;;;;;;;;;;4993461;28;20252;-63
2022/09/25 13:08:33;;;;;;;4.40;1.40;;;;;;;;;;4996391;28;20046;-61
2022/09/25 13:11:03;;;;;;;4.07;1.60;;;;;;;;;;4982668;28;20344;-61
2022/09/25 13:13:32;;;;;;;5.18;1.65;;;;;;;;;;4994371;28;20034;-63
2022/09/25 13:16:01;;;;;;;5.38;1.73;;;;;;;;;;4980993;28;20054;-63
2022/09/25 13:18:29;;;;;;;5.70;1.88;;;;;;;;;;4992411;28;20038;-61
2022/09/25 13:20:57;;;;;;;4.18;1.50;;;;;;;;;;4992314;28;20031;-63
2022/09/25 13:23:37;;;;;;;3.38;1.70;;;;;;;;;;4980123;28;20053;-64
2022/09/25 13:26:13;;;;;;;4.00;1.60;;;;;;;;;;4982678;28;20065;-62
2022/09/25 13:28:41;;;;;;;4.05;1.55;;;;;;;;;;4996307;28;20100;-63
2022/09/25 13:31:12;;;;;;;4.85;1.80;;;;;;;;;;4995188;28;20034;-62
2022/09/25 13:33:45;;;;;;;7.50;2.05;;;;;;;;;;4982276;28;20048;-62
2022/09/25 13:36:15;;;;;;;5.72;1.88;;;;;;;;;;4983546;28;20047;-63
2022/09/25 13:41:30;;;;;;;8.40;2.47;;;;;;;;;;4982244;28;20057;-61
2022/09/25 13:44:15;;;;;;;8.05;2.50;;;;;;;;;;4982249;28;20484;-64
2022/09/25 13:46:42;;;;;;;7.30;1.85;;;;;;;;;;4981864;28;20054;-63
2022/09/25 13:49:27;;;;;;;5.35;2.08;;;;;;;;;;4981742;28;20534;-63
2022/09/25 13:51:53;;;;;;;10.57;2.70;;;;;;;;;;4958507;28;20134;-63
2022/09/25 13:54:25;;;;;;;10.65;2.85;;;;;;;;;;4957629;28;20066;-64
2022/09/25 13:56:54;;;;;;;6.65;2.20;;;;;;;;;;4958794;28;20575;-63
2022/09/25 13:59:22;;;;;;;7.10;2.05;;;;;;;;;;4956461;28;20055;-63
2022/09/25 14:01:53;;;;;;;4.13;1.70;;;;;;;;;;4957319;28;20039;-63
2022/09/25 14:04:29;;;;;;;5.45;2.22;;;;;;;;;;4959493;28;20200;-67
2022/09/25 14:07:10;;;;;;;6.68;1.92;;;;;;;;;;4959656;28;20046;-64
2022/09/25 14:09:41;;;;;;;4.03;1.70;;;;;;;;;;4958583;28;20050;-63
2022/09/25 14:12:14;;;;;;;4.13;1.80;;;;;;;;;;4959124;28;20047;-63
2022/09/25 14:14:51;;;;;;;4.82;1.83;;;;;;;;;;4968873;28;20035;-64
2022/09/25 14:17:18;;;;;;;7.85;1.73;;;;;;;;;;4959531;28;20773;-63
2022/09/25 14:19:47;;;;;;;3.85;1.45;;;;;;;;;;4981975;28;20065;-62
2022/09/25 14:22:32;;;;;;;3.53;1.48;;;;;;;;;;4983111;28;20035;-62
2022/09/25 14:25:00;;;;;;;6.97;1.83;;;;;;;;;;4982203;28;20045;-63
2022/09/25 14:27:28;;;;;;;5.70;2.50;;;;;;;;;;4983141;28;20051;-65
2022/09/25 14:30:10;;;;;;;4.10;1.75;;;;;;;;;;4982635;28;20104;-64
2022/09/25 14:33:12;;;;;;;4.95;1.80;;;;;;;;;;4984324;28;20044;-64
2022/09/25 14:35:53;;;;;;;5.00;1.83;;;;;;;;;;4954414;28;20046;-63
2022/09/25 14:38:30;;;;;;;4.07;1.75;;;;;;;;;;4980498;28;20042;-63
2022/09/25 14:41:18;;;;;;;3.60;1.50;;;;;;;;;;4987574;28;20146;-63
2022/09/25 14:43:48;;;;;;;5.70;1.50;;;;;;;;;;4986586;28;20041;-63
2022/09/25 14:46:18;;;;;;;3.70;1.30;;;;;;;;;;4984764;28;20038;-61
2022/09/25 14:48:47;;;;;;;3.50;1.27;;;;;;;;;;4984574;28;20042;-60
2022/09/25 14:51:19;;;;;;;9.00;1.65;;;;;;;;;;4986844;28;20038;-61
2022/09/25 14:53:49;;;;;;;4.82;1.40;;;;;;;;;;4987678;28;20042;-64
2022/09/25 14:56:16;;;;;;;3.90;1.40;;;;;;;;;;4987008;28;20042;-62
2022/09/25 14:58:49;;;;;;;3.45;1.30;;;;;;;;;;4985598;28;20101;-63
2022/09/25 15:01:35;;;;;;;2.75;1.15;;;;;;;;;;4985076;28;20677;-61
2022/09/25 15:04:04;;;;;;;3.85;1.20;;;;;;;;;;4983451;28;20048;-63
2022/09/25 15:06:34;;;;;;;3.72;1.20;;;;;;;;;;4980355;28;20096;-63
2022/09/25 15:09:01;;;;;;;3.15;1.20;;;;;;;;;;4986769;28;20117;-63
2022/09/25 15:11:39;;;;;;;3.40;1.20;;;;;;;;;;4986762;28;20051;-65
2022/09/25 15:14:09;;;;;;;3.67;1.17;;;;;;;;;;4988994;28;20045;-63
2022/09/25 15:19:24;;;;;;;4.38;1.70;;;;;;;;;;4984760;28;20089;-67
2022/09/25 15:21:51;;;;;;;5.13;1.15;;;;;;;;;;4986982;28;20045;-66
2022/09/25 15:24:20;;;;;;;4.35;1.27;;;;;;;;;;4984803;28;20068;-66
2022/09/25 15:26:52;;;;;;;3.72;1.23;;;;;;;;;;4961310;28;20570;-67
2022/09/25 15:29:24;;;;;;;3.22;1.23;;;;;;;;;;4962900;28;20070;-66
2022/09/25 15:31:51;;;;;;;3.13;1.30;;;;;;;;;;4974112;28;20512;-67
2022/09/25 15:34:25;;;;;;;2.97;1.00;;;;;;;;;;4964013;28;20125;-66
2022/09/25 15:36:52;;;;;;;2.90;1.02;;;;;;;;;;4973086;28;20042;-66
2022/09/25 15:39:28;;;;;;;3.80;1.05;;;;;;;;;;4963104;28;20093;-66